Time;durP1;ratioP1;P1;durP2;ratioP2;P2;SDS_P1;SDS_P2;PMS_P1;PMS_P2;Temp;Humidity;BMP_temperature;BMP_pressure;BME280_temperature;BME280_humidity;BME280_pressure;Samples;Min_cycle;Max_cycle;Signal;HPM_P1;HPM_P2
2021/03/24 00:01:21;;;;;;;13.60;6.97;;;4.00;76.00;;;;;;6219401;23;20031;-81
2021/03/24 00:03:47;;;;;;;13.80;7.03;;;4.00;75.80;;;;;;6246589;23;20079;-81
2021/03/24 00:06:14;;;;;;;16.67;7.83;;;3.90;76.00;;;;;;6219426;23;20328;-83
2021/03/24 00:08:40;;;;;;;12.73;6.93;;;3.80;76.50;;;;;;6246595;23;20001;-82
2021/03/24 00:11:07;;;;;;;13.80;7.30;;;3.70;76.90;;;;;;6220034;23;20475;-81
2021/03/24 00:13:33;;;;;;;13.10;6.90;;;3.60;77.20;;;;;;6245522;23;20008;-82
2021/03/24 00:16:00;;;;;;;12.23;6.87;;;3.60;77.50;;;;;;6219624;23;20059;-82
2021/03/24 00:18:27;;;;;;;13.73;6.93;;;3.60;77.70;;;;;;6245794;23;20006;-83
2021/03/24 00:20:53;;;;;;;16.00;7.23;;;3.50;77.60;;;;;;6219505;23;20000;-83
2021/03/24 00:23:19;;;;;;;11.13;6.40;;;3.50;77.40;;;;;;6218775;23;20008;-83
2021/03/24 07:37:55;;;;;;;12.70;7.07;;;3.40;83.00;;;;;;6233129;22;20027;-70
2021/03/24 07:40:51;;;;;;;16.17;7.33;;;3.50;83.80;;;;;;6274892;22;20003;-70
2021/03/24 07:43:34;;;;;;;14.97;6.30;;;3.60;83.90;;;;;;6276402;22;20453;-71
2021/03/24 07:46:28;;;;;;;17.27;9.00;;;3.70;83.90;;;;;;6275656;22;20430;-70
2021/03/24 07:49:19;;;;;;;18.40;7.80;;;3.80;83.90;;;;;;6274516;22;20003;-71
2021/03/24 07:52:15;;;;;;;15.20;8.47;;;4.00;83.90;;;;;;6274968;22;20003;-73
2021/03/24 07:55:14;;;;;;;16.07;8.57;;;4.10;83.30;;;;;;6266305;22;20010;-72
2021/03/24 07:58:17;;;;;;;19.33;8.70;;;4.10;83.10;;;;;;6277158;22;19996;-72
2021/03/24 08:01:01;;;;;;;18.47;8.47;;;4.20;82.50;;;;;;6274681;22;20338;-71
2021/03/24 08:03:51;;;;;;;19.80;9.13;;;4.20;82.30;;;;;;6275349;22;19996;-72
2021/03/24 08:06:26;;;;;;;15.87;8.70;;;4.30;82.20;;;;;;6275244;22;20441;-72
2021/03/24 08:09:18;;;;;;;18.67;9.03;;;4.40;82.00;;;;;;6272826;22;20007;-73
2021/03/24 08:12:07;;;;;;;33.65;15.55;;;4.50;81.80;;;;;;6276065;22;20003;-73
2021/03/24 08:14:57;;;;;;;21.80;9.57;;;4.70;80.90;;;;;;6218730;22;20004;-72
2021/03/24 08:17:33;;;;;;;18.90;8.67;;;4.70;80.60;;;;;;6274317;22;20003;-73
2021/03/24 08:20:04;;;;;;;20.60;9.30;;;4.80;80.30;;;;;;6273633;22;20004;-73
2021/03/24 08:22:35;;;;;;;20.27;8.75;;;4.80;80.20;;;;;;6275739;22;20070;-73
2021/03/24 08:25:16;;;;;;;18.77;8.80;;;4.90;80.00;;;;;;6273413;22;20023;-73
2021/03/24 08:27:51;;;;;;;17.93;8.80;;;5.00;80.60;;;;;;6274123;22;20004;-73
2021/03/24 08:30:26;;;;;;;17.87;8.30;;;5.10;79.90;;;;;;6273815;22;20008;-73
2021/03/24 08:33:19;;;;;;;16.73;8.17;;;5.20;80.20;;;;;;6275280;22;20000;-72
2021/03/24 08:36:05;;;;;;;16.37;7.90;;;5.30;79.30;;;;;;6274672;22;19996;-73
2021/03/24 08:39:09;;;;;;;15.53;7.63;;;5.30;78.80;;;;;;6271937;22;20020;-73
2021/03/24 08:41:58;;;;;;;14.83;7.70;;;5.40;77.40;;;;;;6274936;22;20491;-73
2021/03/24 08:44:36;;;;;;;18.57;7.30;;;5.50;77.20;;;;;;6273845;22;20008;-72
2021/03/24 08:47:25;;;;;;;18.70;8.63;;;5.50;76.80;;;;;;6273258;22;20031;-72
2021/03/24 08:49:57;;;;;;;13.40;7.20;;;5.50;77.00;;;;;;6275192;22;19996;-72
2021/03/24 08:53:00;;;;;;;11.90;6.40;;;5.70;77.00;;;;;;6273410;22;20004;-72
2021/03/24 08:55:35;;;;;;;15.93;6.93;;;5.70;76.80;;;;;;6273600;22;20012;-73
2021/03/24 08:58:26;;;;;;;15.97;7.43;;;5.80;75.90;;;;;;6274911;22;19996;-72
2021/03/24 09:01:14;;;;;;;14.00;7.30;;;5.90;76.00;;;;;;6274200;22;20011;-72
2021/03/24 09:03:58;;;;;;;21.40;7.53;;;5.90;76.10;;;;;;6273250;22;20448;-72
2021/03/24 09:06:37;;;;;;;18.87;7.20;;;6.00;76.40;;;;;;6275397;22;20069;-73
2021/03/24 09:09:15;;;;;;;15.33;7.93;;;6.00;76.50;;;;;;6272940;22;20095;-72
2021/03/24 09:12:00;;;;;;;16.33;7.97;;;6.10;76.00;;;;;;6275025;22;20004;-72
2021/03/24 09:14:39;;;;;;;21.87;7.80;;;6.10;75.80;;;;;;6273711;22;20008;-72
2021/03/24 09:17:08;;;;;;;15.13;6.93;;;6.20;76.10;;;;;;6273117;22;20042;-72
2021/03/24 09:19:52;;;;;;;15.67;6.90;;;6.40;75.40;;;;;;6275168;22;20000;-72
2021/03/24 09:22:26;;;;;;;14.03;7.27;;;6.40;75.50;;;;;;6274657;22;20053;-71
2021/03/24 09:24:58;;;;;;;15.97;8.20;;;6.50;75.40;;;;;;6273624;22;20011;-71
2021/03/24 09:27:51;;;;;;;15.20;7.53;;;6.50;74.90;;;;;;6275273;22;19996;-71
2021/03/24 09:31:04;;;;;;;16.23;7.40;;;6.60;74.70;;;;;;6274402;22;20576;-71
2021/03/24 09:33:54;;;;;;;14.35;7.50;;;6.70;74.10;;;;;;6275137;22;19996;-71
2021/03/24 09:36:25;;;;;;;15.33;7.27;;;6.70;73.90;;;;;;6272653;22;20011;-71
2021/03/24 09:38:53;;;;;;;16.33;7.75;;;6.70;73.70;;;;;;6273225;22;20016;-72
2021/03/24 09:41:18;;;;;;;16.30;8.00;;;6.80;74.80;;;;;;6272467;22;20124;-72
2021/03/24 09:43:54;;;;;;;17.30;7.97;;;6.90;75.50;;;;;;6273436;22;20012;-72
2021/03/24 09:46:56;;;;;;;18.23;8.77;;;6.90;74.60;;;;;;6270772;22;19992;-71
2021/03/24 09:49:27;;;;;;;14.95;7.50;;;6.90;74.60;;;;;;6272431;22;20087;-72
2021/03/24 09:52:17;;;;;;;17.38;7.65;;;6.90;74.20;;;;;;6273215;22;20021;-71
2021/03/24 09:55:12;;;;;;;17.10;7.27;;;6.90;74.90;;;;;;6272644;22;20004;-71
2021/03/24 09:58:13;;;;;;;12.33;6.73;;;6.90;74.40;;;;;;6274742;22;20000;-72
2021/03/24 10:01:00;;;;;;;13.87;7.13;;;6.90;75.20;;;;;;6273276;22;20004;-72
2021/03/24 10:03:39;;;;;;;15.43;7.30;;;6.90;74.70;;;;;;6272939;22;20008;-72
2021/03/24 10:06:33;;;;;;;13.40;7.73;;;7.00;74.80;;;;;;6274184;22;19995;-72
2021/03/24 10:09:19;;;;;;;14.87;7.30;;;7.10;74.60;;;;;;6226299;22;20047;-71
2021/03/24 10:11:50;;;;;;;13.70;6.53;;;7.30;72.50;;;;;;6273272;22;20003;-74
2021/03/24 10:14:39;;;;;;;15.05;7.40;;;7.30;72.20;;;;;;6274762;22;20086;-73
2021/03/24 10:17:12;;;;;;;13.90;7.80;;;7.40;70.70;;;;;;6200866;22;20007;-75
2021/03/24 10:19:46;;;;;;;13.53;6.77;;;7.40;71.10;;;;;;6275555;22;20035;-76
2021/03/24 10:22:17;;;;;;;12.50;7.07;;;7.50;71.50;;;;;;6274575;22;20008;-76
2021/03/24 10:24:48;;;;;;;19.37;6.77;;;7.60;71.90;;;;;;6276949;22;20014;-76
2021/03/24 10:27:20;;;;;;;13.20;6.40;;;7.80;72.30;;;;;;6275085;22;20000;-77
2021/03/24 10:30:04;;;;;;;19.83;6.97;;;7.80;71.60;;;;;;6275361;22;20007;-78
2021/03/24 10:32:49;;;;;;;11.80;6.40;;;7.80;70.70;;;;;;6276473;22;20422;-75
2021/03/24 10:35:36;;;;;;;13.00;7.00;;;7.80;70.60;;;;;;6274199;22;20023;-77
2021/03/24 10:38:12;;;;;;;14.10;7.30;;;7.90;71.00;;;;;;6272714;22;20030;-75
2021/03/24 10:40:43;;;;;;;13.83;6.83;;;7.90;72.10;;;;;;6272945;22;20174;-75
2021/03/24 10:43:18;;;;;;;13.87;6.93;;;8.00;71.50;;;;;;6274547;22;20025;-77
2021/03/24 10:45:46;;;;;;;14.43;6.80;;;8.10;70.00;;;;;;6275471;22;20011;-75
2021/03/24 10:48:21;;;;;;;14.03;7.40;;;8.00;69.90;;;;;;6274218;22;20007;-76
2021/03/24 10:51:06;;;;;;;13.50;6.50;;;8.00;70.10;;;;;;6275948;22;20426;-75
2021/03/24 10:53:36;;;;;;;14.67;6.57;;;8.30;69.40;;;;;;6274619;22;20071;-74
2021/03/24 10:56:21;;;;;;;14.00;7.17;;;8.40;68.30;;;;;;6275777;22;20478;-73
2021/03/24 10:58:49;;;;;;;18.80;7.67;;;8.50;67.90;;;;;;6275141;22;20027;-74
2021/03/24 11:01:25;;;;;;;13.93;7.13;;;8.40;69.00;;;;;;6274325;22;20129;-73
2021/03/24 11:04:23;;;;;;;16.57;6.70;;;8.60;70.20;;;;;;6274889;22;19999;-73
2021/03/24 11:07:17;;;;;;;15.00;6.73;;;8.70;66.50;;;;;;6274271;22;20002;-73
2021/03/24 11:09:53;;;;;;;14.85;6.80;;;8.70;66.50;;;;;;6275051;22;20034;-74
2021/03/24 11:12:39;;;;;;;13.18;6.85;;;8.70;67.00;;;;;;6275733;22;20444;-74
2021/03/24 11:15:16;;;;;;;14.37;6.37;;;8.60;67.10;;;;;;6275436;22;20007;-73
2021/03/24 11:17:44;;;;;;;14.23;6.57;;;8.70;66.90;;;;;;6276167;22;20314;-72
2021/03/24 11:20:13;;;;;;;14.38;7.03;;;8.70;66.50;;;;;;6269355;22;20410;-73
2021/03/24 11:22:57;;;;;;;15.35;7.00;;;8.70;66.40;;;;;;6274123;22;20087;-77
2021/03/24 11:25:56;;;;;;;13.55;6.32;;;8.70;67.30;;;;;;6276163;22;20381;-75
2021/03/24 11:28:38;;;;;;;16.27;6.83;;;8.80;66.80;;;;;;6246128;22;20584;-76
2021/03/24 11:31:13;;;;;;;14.90;7.07;;;8.90;67.20;;;;;;6275333;22;20049;-75
2021/03/24 11:33:41;;;;;;;15.15;7.15;;;9.20;67.50;;;;;;6276317;22;20225;-74
2021/03/24 11:36:13;;;;;;;17.20;7.35;;;9.20;65.80;;;;;;6275508;22;20013;-76
2021/03/24 11:38:47;;;;;;;;;;;9.40;64.90;;;;;;6274898;22;20490;-75
2021/03/24 11:41:22;;;;;;;13.57;6.65;;;9.50;65.10;;;;;;6274112;22;19953;-74
2021/03/24 11:44:07;;;;;;;16.58;7.32;;;9.60;66.00;;;;;;6276177;22;20441;-73
2021/03/24 11:46:51;;;;;;;18.20;7.65;;;9.70;64.70;;;;;;6275806;22;20118;-73
2021/03/24 11:49:47;;;;;;;14.38;7.32;;;9.80;63.80;;;;;;6273777;22;20452;-73
2021/03/24 11:52:34;;;;;;;16.45;7.43;;;9.90;63.50;;;;;;6273536;22;20004;-73
2021/03/24 11:55:25;;;;;;;14.40;7.00;;;9.90;64.50;;;;;;6274204;22;20007;-73
2021/03/24 11:58:13;;;;;;;12.88;6.30;;;10.00;64.90;;;;;;6275959;22;19999;-73
2021/03/24 12:01:25;;;;;;;12.07;6.45;;;10.20;64.70;;;;;;6203868;22;20524;-73
2021/03/24 12:03:57;;;;;;;12.18;6.35;;;10.30;64.10;;;;;;6275710;22;20090;-75
2021/03/24 12:06:42;;;;;;;;;;;10.50;61.60;;;;;;6274006;22;20004;-74
2021/03/24 12:09:24;;;;;;;11.10;5.35;;;10.60;59.90;;;;;;6275752;22;20310;-75
2021/03/24 12:11:50;;;;;;;10.13;5.53;;;10.80;59.80;;;;;;6274922;22;20011;-75
2021/03/24 12:14:25;;;;;;;14.38;6.72;;;11.00;59.80;;;;;;6273783;22;20012;-77
2021/03/24 12:16:56;;;;;;;10.88;5.68;;;11.10;59.50;;;;;;6274460;22;20122;-76
2021/03/24 12:19:33;;;;;;;14.60;6.00;;;11.20;59.10;;;;;;6273126;22;20008;-74
2021/03/24 12:22:19;;;;;;;9.95;5.70;;;11.30;58.70;;;;;;6275895;22;20028;-74
2021/03/24 12:24:47;;;;;;;13.02;5.65;;;11.40;59.20;;;;;;6274283;22;20037;-74
2021/03/24 12:27:15;;;;;;;14.07;6.10;;;11.70;58.00;;;;;;6273577;22;20005;-74
2021/03/24 12:29:43;;;;;;;13.27;6.30;;;12.00;55.20;;;;;;6276025;22;20000;-74
2021/03/24 12:32:22;;;;;;;15.45;6.75;;;12.20;54.10;;;;;;6275146;22;19992;-76
2021/03/24 12:34:49;;;;;;;13.07;5.93;;;12.30;54.30;;;;;;6274570;22;20461;-75
2021/03/24 12:37:41;;;;;;;12.80;5.57;;;12.50;54.20;;;;;;6273248;22;20008;-73
2021/03/24 12:40:20;;;;;;;12.98;6.15;;;12.70;53.10;;;;;;6272216;22;20015;-76
2021/03/24 12:42:47;;;;;;;12.57;5.55;;;12.90;52.70;;;;;;6274141;22;20007;-74
2021/03/24 12:45:30;;;;;;;12.13;6.28;;;13.00;51.90;;;;;;6272754;22;20039;-74
2021/03/24 12:48:22;;;;;;;13.80;6.28;;;13.30;51.10;;;;;;6274293;22;20080;-76
2021/03/24 12:51:04;;;;;;;10.45;5.05;;;13.50;49.70;;;;;;6267354;22;20143;-76
2021/03/24 12:53:40;;;;;;;8.60;5.30;;;13.70;51.30;;;;;;6273148;22;19999;-77
2021/03/24 12:56:33;;;;;;;10.95;5.15;;;13.90;50.50;;;;;;6275127;22;20449;-76
2021/03/24 12:59:31;;;;;;;10.25;5.28;;;14.20;49.20;;;;;;6275809;22;20081;-76
2021/03/24 13:02:18;;;;;;;10.30;5.13;;;14.50;49.20;;;;;;6273958;22;20450;-77
2021/03/24 13:05:02;;;;;;;11.30;4.93;;;14.80;49.40;;;;;;6275630;22;20007;-78
2021/03/24 13:07:36;;;;;;;10.80;5.40;;;15.00;48.60;;;;;;6274825;22;20007;-78
2021/03/24 13:10:15;;;;;;;10.10;4.75;;;15.20;47.10;;;;;;6274348;22;20063;-73
2021/03/24 13:12:44;;;;;;;7.60;4.38;;;15.60;45.70;;;;;;6275423;22;20022;-77
2021/03/24 13:15:18;;;;;;;7.50;4.82;;;16.10;45.80;;;;;;6275131;22;19999;-76
2021/03/24 13:18:03;;;;;;;8.50;3.85;;;16.80;45.70;;;;;;6274272;22;20291;-76
2021/03/24 13:21:04;;;;;;;13.10;5.25;;;17.30;43.20;;;;;;6272847;22;20014;-75
2021/03/24 13:23:48;;;;;;;10.95;4.78;;;17.80;39.80;;;;;;6273468;22;20387;-75
2021/03/24 13:26:29;;;;;;;8.70;4.30;;;18.40;40.30;;;;;;6273227;22;20090;-76
2021/03/24 13:29:19;;;;;;;11.68;4.70;;;19.00;40.00;;;;;;6274035;22;20426;-75
2021/03/24 13:31:51;;;;;;;11.23;4.70;;;19.30;37.00;;;;;;6274020;22;20008;-74
2021/03/24 13:34:48;;;;;;;9.40;4.10;;;19.80;36.40;;;;;;6274284;22;20010;-76
2021/03/24 13:37:22;;;;;;;9.55;4.45;;;20.30;35.10;;;;;;6274778;22;20072;-75
2021/03/24 13:40:05;;;;;;;10.23;4.22;;;21.00;34.90;;;;;;6275862;22;20422;-75
2021/03/24 13:42:41;;;;;;;9.40;4.30;;;21.30;33.20;;;;;;6274468;22;19996;-75
2021/03/24 13:45:34;;;;;;;8.02;4.13;;;21.90;32.60;;;;;;6273949;22;20300;-75
2021/03/24 13:48:26;;;;;;;6.95;3.70;;;22.50;31.00;;;;;;6273767;22;19999;-76
2021/03/24 13:51:09;;;;;;;11.25;4.07;;;22.90;30.80;;;;;;6277252;22;19995;-75
2021/03/24 13:53:53;;;;;;;8.68;3.75;;;23.20;31.20;;;;;;6276947;22;20007;-75
2021/03/24 13:56:55;;;;;;;8.25;4.35;;;23.80;29.80;;;;;;6277605;22;20010;-77
2021/03/24 13:59:28;;;;;;;8.90;4.35;;;24.00;29.50;;;;;;6276531;22;20422;-76
2021/03/24 14:02:12;;;;;;;8.82;4.72;;;24.50;29.60;;;;;;6277057;22;20006;-76
2021/03/24 14:05:10;;;;;;;10.32;4.07;;;24.50;29.40;;;;;;6276643;22;20019;-76
2021/03/24 14:07:43;;;;;;;7.22;3.90;;;24.50;29.00;;;;;;6275933;22;20027;-74
2021/03/24 14:10:11;;;;;;;6.60;3.65;;;24.90;29.20;;;;;;6276669;22;20004;-74
2021/03/24 14:16:02;;;;;;;7.85;4.13;;;25.00;29.00;;;;;;6247879;23;20028;-76
2021/03/24 14:18:52;;;;;;;6.50;3.40;;;24.50;28.50;;;;;;6124566;23;20014;-75
2021/03/24 14:21:57;;;;;;;6.78;3.67;;;24.50;28.20;;;;;;6100186;23;20523;-73
2021/03/24 14:24:49;;;;;;;6.43;3.50;;;24.10;28.30;;;;;;6228726;23;20053;-75
2021/03/24 14:27:27;;;;;;;8.57;3.55;;;23.70;29.20;;;;;;6187884;23;20043;-75
2021/03/24 14:30:10;;;;;;;5.47;3.47;;;23.00;30.30;;;;;;6271869;22;20000;-75
2021/03/24 14:32:39;;;;;;;6.28;3.15;;;22.80;29.90;;;;;;6245100;23;19997;-74
2021/03/24 14:35:22;;;;;;;7.55;3.20;;;22.30;31.40;;;;;;6245786;23;20016;-73
2021/03/24 14:37:55;;;;;;;5.57;3.00;;;21.70;30.00;;;;;;6247816;23;20000;-75
2021/03/24 14:41:02;;;;;;;6.85;3.80;;;21.60;30.50;;;;;;6246754;23;19996;-75
2021/03/24 14:43:46;;;;;;;10.02;3.47;;;20.80;30.80;;;;;;6128697;23;20017;-75
2021/03/24 14:46:43;;;;;;;8.45;3.30;;;20.30;31.00;;;;;;6154394;23;20357;-75
2021/03/24 14:49:27;;;;;;;5.30;2.90;;;20.00;32.60;;;;;;6121857;23;20005;-75
2021/03/24 14:52:04;;;;;;;6.40;3.05;;;19.60;33.00;;;;;;6159533;23;20001;-73
2021/03/24 14:54:31;;;;;;;5.78;2.75;;;19.30;33.00;;;;;;6158597;23;20017;-74
2021/03/24 14:57:08;;;;;;;4.28;2.78;;;19.30;34.00;;;;;;6159013;23;20016;-73
2021/03/24 14:59:42;;;;;;;5.32;2.80;;;19.20;34.30;;;;;;6158568;23;20379;-73
2021/03/24 15:02:23;;;;;;;6.22;3.10;;;19.20;33.80;;;;;;6157510;23;20105;-73
2021/03/24 15:04:55;;;;;;;5.10;2.90;;;19.10;33.70;;;;;;6182611;23;20005;-74
2021/03/24 15:07:29;;;;;;;3.95;2.10;;;18.80;34.40;;;;;;6181763;23;20008;-73
2021/03/24 15:10:10;;;;;;;3.47;1.90;;;18.50;33.00;;;;;;6157674;23;20016;-74
2021/03/24 15:12:39;;;;;;;4.22;2.55;;;18.50;33.50;;;;;;6156635;23;20048;-74
2021/03/24 15:15:10;;;;;;;5.45;2.35;;;18.30;33.80;;;;;;6209514;23;20108;-74
2021/03/24 15:17:55;;;;;;;5.72;2.75;;;18.20;34.40;;;;;;6215056;23;19997;-74
2021/03/24 15:20:32;;;;;;;6.45;2.75;;;18.20;34.70;;;;;;6214294;23;20042;-75
2021/03/24 15:23:05;;;;;;;6.15;2.25;;;18.10;34.30;;;;;;6189151;23;20007;-74
2021/03/24 15:25:31;;;;;;;4.00;2.30;;;18.10;35.40;;;;;;6214566;23;20001;-74
2021/03/24 15:28:03;;;;;;;3.55;1.95;;;18.10;34.70;;;;;;6215727;23;20001;-74
2021/03/24 15:30:37;;;;;;;4.85;2.20;;;18.30;33.50;;;;;;6214233;23;20470;-74
2021/03/24 15:33:38;;;;;;;3.65;2.30;;;18.30;33.70;;;;;;6183662;23;20107;-74
2021/03/24 15:36:19;;;;;;;4.47;2.20;;;18.10;34.20;;;;;;6215087;23;20423;-75
2021/03/24 15:38:49;;;;;;;4.22;2.53;;;18.10;33.70;;;;;;6215313;23;20023;-73
2021/03/24 15:41:34;;;;;;;4.25;2.10;;;18.10;34.20;;;;;;6214617;23;20036;-74
2021/03/24 15:44:33;;;;;;;5.95;2.10;;;18.10;33.70;;;;;;6215179;23;20012;-74
2021/03/24 15:47:13;;;;;;;4.75;1.92;;;18.00;34.60;;;;;;6215044;23;20008;-74
2021/03/24 15:49:41;;;;;;;4.60;1.73;;;17.90;34.50;;;;;;6215558;23;20004;-74
2021/03/24 15:52:25;;;;;;;4.70;2.30;;;17.80;33.10;;;;;;6188463;23;20015;-77
2021/03/24 15:54:54;;;;;;;4.63;2.05;;;17.70;33.50;;;;;;6214169;23;20004;-75
2021/03/24 15:57:50;;;;;;;4.80;2.00;;;17.50;34.50;;;;;;6187846;23;20004;-76
2021/03/24 16:00:22;;;;;;;7.07;2.20;;;17.50;34.00;;;;;;6213373;23;20009;-72
2021/03/24 16:03:26;;;;;;;4.05;2.00;;;17.30;34.60;;;;;;6187053;23;20013;-74
2021/03/24 16:06:10;;;;;;;5.72;2.75;;;17.20;34.40;;;;;;6194470;23;20008;-74
2021/03/24 16:09:09;;;;;;;5.22;2.25;;;17.10;34.70;;;;;;6212983;23;20495;-74
2021/03/24 16:12:12;;;;;;;4.38;1.95;;;16.90;35.60;;;;;;6188136;23;20004;-76
2021/03/24 16:15:20;;;;;;;2.60;1.58;;;17.00;34.50;;;;;;6227881;23;20017;-74
2021/03/24 16:18:10;;;;;;;4.28;2.05;;;17.00;33.90;;;;;;6243893;23;20091;-74
2021/03/24 16:20:59;;;;;;;96.28;48.83;;;17.00;34.00;;;;;;6242586;23;20501;-73
2021/03/24 16:23:42;;;;;;;70.38;38.92;;;17.00;34.10;;;;;;6244800;23;20030;-75
2021/03/24 16:26:27;;;;;;;9.30;6.07;;;16.90;35.10;;;;;;6246549;23;20469;-75
2021/03/24 16:28:59;;;;;;;5.95;4.00;;;16.90;34.80;;;;;;6243917;23;20035;-76
2021/03/24 16:31:47;;;;;;;6.32;3.03;;;16.80;35.30;;;;;;6243593;23;20095;-75
2021/03/24 16:34:28;;;;;;;3.10;1.88;;;16.60;34.90;;;;;;6243336;23;20008;-78
2021/03/24 16:37:31;;;;;;;4.90;1.58;;;16.50;35.10;;;;;;6218224;23;20099;-76
2021/03/24 16:40:34;;;;;;;5.20;1.75;;;16.40;35.90;;;;;;6245474;23;20002;-76
2021/03/24 16:43:18;;;;;;;3.42;1.25;;;16.30;36.00;;;;;;6243473;23;20008;-76
2021/03/24 16:45:59;;;;;;;3.85;1.80;;;16.10;35.50;;;;;;6245350;23;20026;-76
2021/03/24 16:48:33;;;;;;;3.20;1.42;;;16.10;34.90;;;;;;6244583;23;20068;-75
2021/03/24 16:51:10;;;;;;;3.42;1.30;;;16.00;34.80;;;;;;6243476;23;20000;-75
2021/03/24 16:54:03;;;;;;;2.53;1.20;;;16.00;34.10;;;;;;6217316;23;20000;-76
2021/03/24 16:56:42;;;;;;;2.90;1.25;;;15.90;34.20;;;;;;6243080;23;20016;-76
2021/03/24 17:00:00;;;;;;;1.90;1.30;;;15.90;35.10;;;;;;6243533;22;20000;-75
2021/03/24 17:02:47;;;;;;;2.05;1.30;;;15.80;35.20;;;;;;6228294;23;20008;-76
2021/03/24 17:05:25;;;;;;;2.13;1.08;;;15.60;36.10;;;;;;6219838;23;20058;-77
2021/03/24 17:08:10;;;;;;;4.35;1.30;;;15.50;36.10;;;;;;6244266;23;20016;-75
2021/03/24 17:11:01;;;;;;;1.50;1.15;;;15.30;36.80;;;;;;6269895;22;20079;-75
2021/03/24 17:13:44;;;;;;;3.35;1.40;;;15.20;37.20;;;;;;6244130;23;20016;-75
2021/03/24 17:16:31;;;;;;;2.50;1.30;;;15.00;37.20;;;;;;6246283;23;20477;-75
2021/03/24 17:18:59;;;;;;;2.92;1.45;;;15.10;37.30;;;;;;6244548;23;20007;-75
2021/03/24 17:21:29;;;;;;;2.60;1.33;;;15.00;37.40;;;;;;6269671;22;20059;-75
2021/03/24 17:24:01;;;;;;;3.60;1.58;;;15.00;37.00;;;;;;6244686;23;20001;-75
2021/03/24 17:26:32;;;;;;;4.50;2.05;;;14.90;36.30;;;;;;6242675;22;20354;-75
2021/03/24 17:29:21;;;;;;;4.22;1.80;;;14.90;36.70;;;;;;6242943;23;20103;-75
2021/03/24 17:32:06;;;;;;;4.30;2.22;;;14.70;37.00;;;;;;6245408;23;20084;-74
2021/03/24 17:34:41;;;;;;;4.10;2.20;;;14.70;37.20;;;;;;6242445;23;20019;-74
2021/03/24 17:37:16;;;;;;;4.50;2.20;;;14.60;37.10;;;;;;6242808;23;20011;-74
2021/03/24 17:40:03;;;;;;;3.85;2.10;;;14.60;37.40;;;;;;6243299;23;20051;-74
2021/03/24 17:42:47;;;;;;;5.30;2.72;;;14.50;37.40;;;;;;6242464;23;20099;-73
2021/03/24 17:45:30;;;;;;;5.55;2.90;;;14.40;37.90;;;;;;6244391;23;19996;-73
2021/03/24 17:47:59;;;;;;;5.88;3.67;;;14.30;37.90;;;;;;6243094;23;20103;-73
2021/03/24 17:50:38;;;;;;;5.43;3.60;;;14.20;38.20;;;;;;6242518;23;20010;-73
2021/03/24 17:53:17;;;;;;;6.70;4.00;;;14.00;38.50;;;;;;6268348;22;20434;-73
2021/03/24 17:55:51;;;;;;;7.57;3.50;;;13.90;38.70;;;;;;6243157;23;20008;-73
2021/03/24 17:58:55;;;;;;;4.30;3.05;;;13.80;39.40;;;;;;6242528;23;20008;-73
2021/03/24 18:01:34;;;;;;;7.05;2.88;;;13.70;39.70;;;;;;6238245;23;20307;-73
2021/03/24 18:04:17;;;;;;;4.85;2.72;;;13.60;40.40;;;;;;6268826;22;20004;-74
2021/03/24 18:06:44;;;;;;;6.38;2.85;;;13.50;40.80;;;;;;6244718;23;20075;-74
2021/03/24 18:09:23;;;;;;;5.50;2.80;;;13.30;41.90;;;;;;6244629;23;20004;-74
2021/03/24 18:11:53;;;;;;;5.10;2.47;;;13.20;42.70;;;;;;6268296;22;20031;-75
2021/03/24 18:14:32;;;;;;;4.90;2.45;;;13.00;42.80;;;;;;6239457;23;20078;-75
2021/03/24 18:17:10;;;;;;;4.25;2.20;;;12.90;44.60;;;;;;6242641;23;20106;-73
2021/03/24 18:19:55;;;;;;;4.88;2.00;;;12.80;44.70;;;;;;6241888;23;20004;-74
2021/03/24 18:22:52;;;;;;;4.90;2.00;;;12.70;44.30;;;;;;6242180;23;20003;-73
2021/03/24 18:26:01;;;;;;;3.03;1.67;;;12.60;44.40;;;;;;6223926;23;20008;-82
2021/03/24 18:28:30;;;;;;;14.70;6.97;;;12.50;45.30;;;;;;6228114;23;20027;-75
2021/03/24 18:31:02;;;;;;;5.07;2.45;;;12.40;45.60;;;;;;6242804;23;20012;-75
2021/03/24 18:33:30;;;;;;;3.83;2.25;;;12.40;46.40;;;;;;6242215;23;20000;-75
2021/03/24 18:36:07;;;;;;;4.25;1.90;;;12.20;47.50;;;;;;6268056;22;20091;-74
2021/03/24 18:38:32;;;;;;;2.95;1.95;;;12.10;48.00;;;;;;6243228;23;20004;-75
2021/03/24 18:40:59;;;;;;;4.38;2.10;;;12.10;47.10;;;;;;6242772;23;20031;-74
2021/03/24 18:43:25;;;;;;;2.95;1.90;;;11.90;45.90;;;;;;6245185;23;20008;-74
2021/03/24 18:45:53;;;;;;;4.65;2.33;;;11.80;47.40;;;;;;6244569;23;20027;-73
2021/03/24 18:48:27;;;;;;;4.35;2.25;;;11.80;47.30;;;;;;6269524;22;20012;-75
2021/03/24 18:51:09;;;;;;;6.68;2.58;;;11.80;47.50;;;;;;6269480;22;20024;-75
2021/03/24 18:53:35;;;;;;;4.68;2.22;;;11.70;48.20;;;;;;6243792;23;20048;-74
2021/03/24 18:56:14;;;;;;;6.72;2.35;;;11.60;49.10;;;;;;6245943;23;20063;-74
2021/03/24 18:58:53;;;;;;;5.50;2.08;;;11.50;50.00;;;;;;6245976;23;20083;-74
2021/03/24 19:01:29;;;;;;;6.18;2.28;;;11.40;50.40;;;;;;6245105;23;20014;-76
2021/03/24 19:03:55;;;;;;;6.57;2.40;;;11.30;50.80;;;;;;6218375;23;20004;-75
2021/03/24 19:06:22;;;;;;;4.50;2.28;;;11.30;51.70;;;;;;6243192;23;20350;-75
2021/03/24 19:08:55;;;;;;;4.43;2.28;;;11.20;51.90;;;;;;6243742;23;20039;-74
2021/03/24 19:11:39;;;;;;;6.20;2.17;;;11.00;52.50;;;;;;6243226;22;20004;-74
2021/03/24 19:14:47;;;;;;;4.93;2.25;;;10.90;52.80;;;;;;6245055;23;20012;-75
2021/03/24 19:17:39;;;;;;;6.03;2.42;;;10.80;54.00;;;;;;6269384;22;20103;-76
2021/03/24 19:20:19;;;;;;;5.50;3.13;;;10.70;53.30;;;;;;6244695;23;20312;-75
2021/03/24 19:22:50;;;;;;;7.28;3.35;;;10.50;52.80;;;;;;6244140;23;20684;-75
2021/03/24 19:25:18;;;;;;;7.60;3.42;;;10.50;53.40;;;;;;6245629;22;20067;-75
2021/03/24 19:28:02;;;;;;;5.18;2.80;;;10.40;53.10;;;;;;6269480;22;20008;-74
2021/03/24 19:30:45;;;;;;;8.20;3.60;;;10.30;53.90;;;;;;6245365;23;20043;-76
2021/03/24 19:33:25;;;;;;;6.20;3.45;;;10.30;53.20;;;;;;6246218;23;20003;-75
2021/03/24 19:35:53;;;;;;;7.90;3.40;;;10.20;52.90;;;;;;6245811;23;20012;-71
2021/03/24 19:38:25;;;;;;;7.63;3.38;;;10.10;53.20;;;;;;6245209;23;20071;-73
2021/03/24 19:41:11;;;;;;;7.22;3.00;;;10.00;54.50;;;;;;6244089;23;20427;-73
2021/03/24 19:43:42;;;;;;;4.85;2.53;;;10.00;56.20;;;;;;6240991;23;20074;-74
2021/03/24 19:46:20;;;;;;;6.10;2.92;;;9.90;55.60;;;;;;6243838;23;20036;-73
2021/03/24 19:48:48;;;;;;;7.18;2.55;;;9.80;55.70;;;;;;6243615;23;20008;-74
2021/03/24 19:51:14;;;;;;;5.88;2.58;;;9.50;55.90;;;;;;6245561;23;20007;-75
2021/03/24 19:53:40;;;;;;;6.65;2.67;;;9.40;55.60;;;;;;6245722;23;20473;-74
2021/03/24 19:56:07;;;;;;;5.95;2.50;;;9.40;56.30;;;;;;6244069;23;20008;-75
2021/03/24 19:58:47;;;;;;;3.80;2.10;;;9.30;56.10;;;;;;6243389;23;20007;-77
2021/03/24 20:01:39;;;;;;;5.70;2.58;;;9.30;56.40;;;;;;6269862;22;20004;-76
2021/03/24 20:04:29;;;;;;;3.17;2.08;;;9.30;55.40;;;;;;6243223;23;20419;-77
2021/03/24 20:07:02;;;;;;;3.53;1.90;;;9.20;55.70;;;;;;6244175;23;20427;-77
2021/03/24 20:09:48;;;;;;;4.95;2.25;;;9.10;56.30;;;;;;6243718;23;20050;-77
2021/03/24 20:12:35;;;;;;;4.55;2.05;;;9.10;56.90;;;;;;6245109;23;19996;-79
2021/03/24 20:15:07;;;;;;;5.22;2.30;;;9.10;57.80;;;;;;6269072;22;20071;-77
2021/03/24 20:17:44;;;;;;;4.18;1.95;;;9.10;57.40;;;;;;6243387;23;20083;-77
2021/03/24 20:20:24;;;;;;;4.25;1.98;;;9.00;56.90;;;;;;6245317;23;20011;-77
2021/03/24 20:22:51;;;;;;;5.05;2.17;;;8.90;56.60;;;;;;6245580;23;20004;-77
2021/03/24 20:25:20;;;;;;;3.75;1.80;;;8.80;57.30;;;;;;6243365;23;20012;-77
2021/03/24 20:27:47;;;;;;;2.85;1.60;;;8.70;57.90;;;;;;6245156;23;20490;-76
2021/03/24 20:30:22;;;;;;;3.10;1.73;;;8.60;58.20;;;;;;6243828;23;20482;-77
2021/03/24 20:32:52;;;;;;;6.68;2.15;;;8.60;58.10;;;;;;6269322;22;20000;-77
2021/03/24 20:35:39;;;;;;;3.80;2.08;;;8.50;58.40;;;;;;6244370;23;20029;-77
2021/03/24 20:38:32;;;;;;;3.85;2.10;;;8.40;58.20;;;;;;6244148;23;20004;-77
2021/03/24 20:41:01;;;;;;;5.68;2.28;;;8.50;57.90;;;;;;6245089;23;19992;-77
2021/03/24 20:43:40;;;;;;;3.13;1.77;;;8.50;57.90;;;;;;6244437;23;20000;-76
2021/03/24 20:46:07;;;;;;;2.85;1.98;;;8.40;58.30;;;;;;6245399;23;20005;-77
2021/03/24 20:48:34;;;;;;;3.00;2.08;;;8.40;58.10;;;;;;6242787;23;20008;-77
2021/03/24 20:51:03;;;;;;;6.53;2.63;;;8.40;59.00;;;;;;6243988;23;20004;-77
2021/03/24 20:53:30;;;;;;;5.10;2.10;;;8.30;58.60;;;;;;6242707;23;20004;-75
2021/03/24 20:55:56;;;;;;;3.08;2.10;;;8.30;58.70;;;;;;6243311;23;20012;-75
2021/03/24 20:58:25;;;;;;;6.10;2.50;;;8.20;59.50;;;;;;6244256;23;20004;-75
2021/03/24 21:00:51;;;;;;;5.30;2.53;;;8.20;59.10;;;;;;6243073;23;20091;-75
2021/03/24 21:03:20;;;;;;;5.20;2.58;;;8.30;59.10;;;;;;6242411;23;20023;-76
2021/03/24 21:05:47;;;;;;;4.75;2.70;;;8.30;59.00;;;;;;6243229;23;20074;-74
2021/03/24 21:08:17;;;;;;;4.05;2.45;;;8.30;59.50;;;;;;6243298;23;20026;-73
2021/03/24 21:10:43;;;;;;;4.35;2.40;;;8.30;59.60;;;;;;6268791;22;20004;-74